Clancy, Montana
Current Conditions -  °F | °C
As of 11:53 AM on Monday 20 Oct 2014 (Local Time) from KHLN Reporting Station
Clear Clear  
Wind Chill: 56°   Ceiling: Unl
Heat Index: 56°   Visibility: 10mi
Dew Point: 35°   Wind: 5mph
Humidity: 45%   Direction: 340°NNW
Pressure: 29.93"   Gusts: NA
Location:  46.47°N, 111.97°W
Report Text: KHLN 201753Z 34004KT 10SM CLR 13/02 A2993 RMK AO2 SLP145 T01330017 10139 20028 58009
Loading
Personal Weather Stations






























Interactive Weather Map
Tropical Storm Tracking
New forecast layout! Learn more

10-Day Weather Forecast

Advertisements
Track Severe Weather on mobile